Terminal Aerodrome Forecast
Issued by NWS Springfield, MO

Home | Current Version | Previous Version | Text Only | Print | Product List | Glossary On
Versions: 1 2 3 4 5 6 7 8 9 10 11 12 13 14 15 16 17 18 19 20 21 22 23 24 25 26 27 28
000
FTUS43 KSGF 221157 CCB
TAFSGF
TAF COR
KSGF 221157Z 2212/2312 19005KT 2SM BR BKN003
      TEMPO 2212/2215 1SM BR
     FM221500 20007KT 4SM BR BKN008
     FM221700 20008KT P6SM FEW150
     FM231000 16005KT 4SM BR SCT200=

USA.gov is the U.S. government's official web portal to all federal, state and local government web resources and services.